默认 日期 大小 文件数 浏览量 最新下载 xml
track磁力链接相关资源由用户搜索指令自动获取,结果来源于网络,本站不存储任何资料,亦不承担任何责任,请于24小时内删除,搜索到7733个磁力,显示前4000条数据,用时4ms。
    {"Cover.jpg": 61402, "16 The Maze.mp3": 1001327, "14 Neel Iravu.mp3": 1369133, "02 Dilli's Swag.mp3": 873434, "04 Rise Of Dilli.mp3": 1340296, "17 Night Is Dark.mp3": 1881136, "03 Grief Of Dilli.mp3": 3657462, "05 Nepolian Theme.mp3": 2377253, "01 Kill And ...
创建时间: 2019-11-30 08:21:18 大小:27.18 MB 文件数量:18 热度:7 最近下载:2025-09-19 11:18:06
    {"02 Spice Girls - Stop.flac": 27896172, "15 The Corrrs - Dreams.flac": 28978668, "05 Stevie Wonder - Higher Ground.flac": 32454091, "08 Vanessa Williams - Betcha never.flac": 35238412, "12 Florent Pagny - Une place pour moi.flac": 30125832, "01 ...
创建时间: 2019-11-30 19:41:06 大小:493.85 MB 文件数量:18 热度:5 最近下载:2023-12-26 03:52:02
    {"50. O.B.M Notion - Peacefulness.mp3": 19757160, "01. Aquilae - Ascend (Original Mix).mp3": 16347909, "18. Dan Stone - Lucca (Original Mix).mp3": 17295584, "22. Leenz - Dedicated (Original Mix).mp3": 21368594, "25. Estigma - Sentinel (Original Mix).mp3": ...
创建时间: 2019-11-30 22:08:37 大小:916.98 MB 文件数量:52 热度:5 最近下载:2023-12-26 04:13:05
    {"Cover.jpg": 105766, "11 Rome.mp3": 13313427, "01 Intro.mp3": 2580655, "06 Drift.mp3": 8129967, "14 Outro.mp3": 1424505, "10 Supreme.mp3": 7238394, "04 Abrasive.mp3": 10271214, "05 Countach.mp3": 6098346, "12 Primetime.mp3": 4735928, "03 Magnifique.mp3": ...
创建时间: 2019-11-30 22:51:49 大小:103.05 MB 文件数量:17 热度:4 最近下载:2023-12-26 04:20:02
    {"14. Hypaton - Override.mp3": 10719232, "03. Berg - See It Coming.mp3": 8955904, "28. Allen Watts - Reboot.mp3": 11290624, "20. Astrosphere - Outflow.mp3": 10975232, "22. PHOENIX - Time Tunnel.mp3": 5365760, "21. Artento Divini - Delhi.mp3": 7790592, "23. ...
创建时间: 2019-12-01 01:10:59 大小:289.94 MB 文件数量:39 热度:5 最近下载:2025-02-18 03:51:03
    ... "Rush-Exit...Stage Left [Bonus Track]-10-Xanadu.mp3": 29191588, ... "Rush-Exit...Stage Left [Bonus Track]-11-Freewill.mp3": 13299820, ... Rush-Exit...Stage Left [Bonus Track]-02-Red Barchetta.mp3": ... "Rush-Exit...Stage Left [Bonus Track]-06-Beneath, Between & Behind ...
创建时间: 2019-12-01 01:34:57 大小:175.84 MB 文件数量:13 热度:5 最近下载:2023-12-26 04:43:01
    {"August 2019 Resources.txt": 1774, "Ben Cummings August 2019 FT.mp4": 2096451634, "Ben Cummings FT QaA August 2019.mp4": 1372806071}
创建时间: 2019-12-01 01:43:16 大小:3.23 GB 文件数量:3 热度:7 最近下载:2025-03-12 10:46:02
    {"Tantric Sex.tgz": 15869238, "tracked_by_h33t_com.txt": 185, "Torrent downloaded from AhaShare.com.txt": 58, "Torrent Downloaded From ExtraTorrent.cc.txt": 352}
创建时间: 2019-12-01 02:15:44 大小:15.13 MB 文件数量:4 热度:8 最近下载:2025-04-24 09:29:01
    {"Resources.txt": 1205, "Ben Cummings October FT 2019.mp4": 1847237339, "Ben Cummings October 2019 QaA.mp4": 1394954610}
创建时间: 2019-12-01 04:49:34 大小:3.02 GB 文件数量:3 热度:13 最近下载:2025-04-25 05:26:01
    ... The Umbrella Chronicles Original Sound Track Covers": {"cd.jpg": 205177, ... The Umbrella Chronicles Original Sound Track.ape": 478592816, "ghm sound ... The Umbrella Chronicles Original Sound Track.cue": 5192, "ghm ... Chronicles Original Sound Track.log": 6168}
创建时间: 2019-12-01 09:12:05 大小:460.66 MB 文件数量:10 热度:6 最近下载:2024-06-14 12:04:02
    {"BDMV": {"BACKUP": {"CLIPINF": {"00000.clpi": 412, "00001.clpi": 432, "00002.clpi": 58048, "00003.clpi": 424, "00004.clpi": 756}, "PLAYLIST": {"00000.mpls": 184, "00001.mpls": 168, "00002.mpls": 326, "00003.mpls": 168, "00004.mpls": 186}, "index.bdmv": ...
创建时间: 2019-12-01 14:16:11 大小:21.35 GB 文件数量:31 热度:8 最近下载:2025-01-10 16:02:03
    {"readme.txt": 260, "Magnetrixx.nfo": 5200, "mgn-hfsutrp2.r00": 50000000, "mgn-hfsutrp2.r01": 50000000, "mgn-hfsutrp2.r02": 50000000, "mgn-hfsutrp2.r03": 50000000, "mgn-hfsutrp2.r04": 50000000, "mgn-hfsutrp2.r05": 50000000, "mgn-hfsutrp2.r06": 50000000, " ...
创建时间: 2019-12-01 14:49:43 大小:700.6 MB 文件数量:18 热度:6 最近下载:2025-10-10 20:31:04
    {"cover.jpg": 304212, "01. 참회록 (Prod. By 윤도현X허준).mp3": 11748132, "02. 참회록 (Prod. By 윤상X스페이스카우보이).mp3": 11304071}
创建时间: 2019-12-02 00:45:11 大小:22.27 MB 文件数量:3 热度:4 最近下载:2023-12-26 07:10:04
    {"Sep 2019 Resources.txt": 1841, "Ben Cummings FT QaA Sep 2019.mp4": 1395060544, "Ben Cummings FT September 2019.mp4": 1657380282}
创建时间: 2019-12-02 03:45:49 大小:2.84 GB 文件数量:3 热度:18 最近下载:2025-03-11 04:25:02
    {"03 Faster.mp3": 9456570, "13 I Say Ok.mp3": 9191248, "02 Notorious.mp3": 7763839, "12 Last Call.mp3": 9711592, "14 Move On U.mp3": 8265451, "07 For Myself.mp3": 8340721, "09 Promise Me.mp3": 8185017, "11 White Lies.mp3": 9830661, "01 All Fired Up.mp3": ...
创建时间: 2019-12-02 13:28:49 大小:116.66 MB 文件数量:14 热度:5 最近下载:2023-12-26 08:33:02
    {"folder.jpg": 78964, "11. Xanhanda - You&Me.mp3": 23459264, "07. D'Estate - Alright.mp3": 19344455, "13. Molino - Experimental.mp3": 15204586, "19. Kike Medina - Kitland.mp3": 17364380, "06. Tobias Johansson - Kids.mp3": 12809667, "18. Monoduett - Noise ...
创建时间: 2019-12-02 17:49:14 大小:416.79 MB 文件数量:26 热度:5 最近下载:2023-12-26 08:57:03
    {"dynamics.nfo": 6713, "dyn-sf2trckrchvs.r00": 15000000, "dyn-sf2trckrchvs.r01": 15000000, "dyn-sf2trckrchvs.r02": 15000000, "dyn-sf2trckrchvs.r03": 15000000, "dyn-sf2trckrchvs.r04": 15000000, "dyn-sf2trckrchvs.r05": 15000000, "dyn-sf2trckrchvs.r06": ...
创建时间: 2019-12-02 17:55:21 大小:378.97 MB 文件数量:29 热度:10 最近下载:2025-03-18 14:13:03
    {"front.jpg": 201373, "12. Cassadee Pope - FYI.flac": 24867408, "16. Cassadee Pope - Gavi.flac": 4833828, "14. Cassadee Pope - Distracted.flac": 19656532, "18. Cassadee Pope - Don't Ask Me.flac": 24577790, "20. Cassadee Pope - Still Got It.flac": 27107397, ...
创建时间: 2019-12-03 03:00:45 大小:300.32 MB 文件数量:23 热度:7 最近下载:2025-03-24 03:48:02
    {"CODEX": {"codex64.dll": 133408, "steam_emu.ini": 3912, "steam_api64.cdx": 250656, "steam_api64.dll": 250656, "steamclient64.dll": 304416, "GameOverlayRenderer64.dll": 1544992}, "Update": {"Setup.exe": 7649468, "Setup-1.cdx": 1045918016, "patchnotes.txt": ...
创建时间: 2019-12-03 04:54:35 大小:1007.14 MB 文件数量:10 热度:7 最近下载:2025-02-20 08:43:01
    {"Cover.jpg": 137802, "4. On One.mp3": 7883003, "2. Patience.mp3": 7885095, "3. The Truth.mp3": 11368786, "Torrent Downloaded.txt": 355, "1. Love Elevation Suite.mp3": 3010666, "5. Space (extended) ft AGuyNamedClif.mp3": 11128461}
创建时间: 2019-12-03 07:11:34 大小:39.5 MB 文件数量:7 热度:6 最近下载:2024-09-02 13:13:01